sensor_id;sensor_type;location;lat;lon;timestamp;pressure;altitude;pressure_sealevel;temperature;humidity
17635;BME280;8936;49.010;12.120;2023-03-01T00:02:20;98724.06;;;3.00;100.00
17635;BME280;8936;49.010;12.120;2023-03-01T00:04:47;98714.34;;;3.07;100.00
17635;BME280;8936;49.010;12.120;2023-03-01T00:07:13;98713.16;;;3.16;100.00
17635;BME280;8936;49.010;12.120;2023-03-01T00:09:39;98714.75;;;3.10;100.00
17635;BME280;8936;49.010;12.120;2023-03-01T00:12:06;98727.81;;;3.18;100.00
17635;BME280;8936;49.010;12.120;2023-03-01T00:14:34;98724.84;;;2.94;100.00
17635;BME280;8936;49.010;12.120;2023-03-01T00:17:01;98720.44;;;2.73;100.00
17635;BME280;8936;49.010;12.120;2023-03-01T00:19:28;98722.03;;;2.40;100.00
17635;BME280;8936;49.010;12.120;2023-03-01T00:21:54;98723.00;;;2.11;100.00
17635;BME280;8936;49.010;12.120;2023-03-01T00:24:20;98715.59;;;2.00;100.00
17635;BME280;8936;49.010;12.120;2023-03-01T00:26:47;98720.25;;;2.19;100.00
17635;BME280;8936;49.010;12.120;2023-03-01T00:29:13;98711.97;;;2.50;100.00
17635;BME280;8936;49.010;12.120;2023-03-01T00:31:41;98712.25;;;2.34;100.00
17635;BME280;8936;49.010;12.120;2023-03-01T00:34:07;98720.53;;;2.58;100.00
17635;BME280;8936;49.010;12.120;2023-03-01T00:36:35;98701.13;;;2.66;100.00
17635;BME280;8936;49.010;12.120;2023-03-01T00:39:02;98710.34;;;2.83;100.00
17635;BME280;8936;49.010;12.120;2023-03-01T00:41:29;98707.38;;;2.93;100.00
17635;BME280;8936;49.010;12.120;2023-03-01T00:43:55;98707.88;;;3.09;100.00
17635;BME280;8936;49.010;12.120;2023-03-01T00:46:22;98707.88;;;3.16;100.00
17635;BME280;8936;49.010;12.120;2023-03-01T00:48:50;98706.69;;;3.18;100.00
17635;BME280;8936;49.010;12.120;2023-03-01T00:51:18;98706.91;;;3.23;100.00
17635;BME280;8936;49.010;12.120;2023-03-01T00:53:45;98704.31;;;3.30;100.00
17635;BME280;8936;49.010;12.120;2023-03-01T00:56:12;98703.94;;;3.40;100.00
17635;BME280;8936;49.010;12.120;2023-03-01T00:58:39;98707.59;;;3.45;100.00
17635;BME280;8936;49.010;12.120;2023-03-01T01:01:09;98701.09;;;3.41;100.00
17635;BME280;8936;49.010;12.120;2023-03-01T01:03:42;98697.34;;;3.22;100.00
17635;BME280;8936;49.010;12.120;2023-03-01T01:06:13;98694.91;;;2.80;100.00
17635;BME280;8936;49.010;12.120;2023-03-01T01:08:40;98690.97;;;2.63;100.00
17635;BME280;8936;49.010;12.120;2023-03-01T01:11:08;98687.09;;;2.59;100.00
17635;BME280;8936;49.010;12.120;2023-03-01T01:13:34;98679.66;;;2.76;100.00
17635;BME280;8936;49.010;12.120;2023-03-01T01:16:01;98683.97;;;2.83;100.00
17635;BME280;8936;49.010;12.120;2023-03-01T01:18:28;98681.13;;;2.78;100.00
17635;BME280;8936;49.010;12.120;2023-03-01T01:20:54;98676.91;;;2.90;100.00
17635;BME280;8936;49.010;12.120;2023-03-01T01:23:22;98679.78;;;2.95;100.00
17635;BME280;8936;49.010;12.120;2023-03-01T01:25:48;98671.31;;;3.06;100.00
17635;BME280;8936;49.010;12.120;2023-03-01T01:28:15;98674.38;;;3.16;100.00
17635;BME280;8936;49.010;12.120;2023-03-01T01:30:42;98675.84;;;3.25;100.00
17635;BME280;8936;49.010;12.120;2023-03-01T01:33:08;98667.94;;;3.32;100.00
17635;BME280;8936;49.010;12.120;2023-03-01T01:35:34;98667.38;;;3.37;100.00
17635;BME280;8936;49.010;12.120;2023-03-01T01:38:01;98673.06;;;3.40;100.00
17635;BME280;8936;49.010;12.120;2023-03-01T01:40:28;98662.13;;;3.43;100.00
17635;BME280;8936;49.010;12.120;2023-03-01T01:42:55;98653.97;;;3.45;100.00
17635;BME280;8936;49.010;12.120;2023-03-01T01:45:26;98654.97;;;3.44;100.00
17635;BME280;8936;49.010;12.120;2023-03-01T01:47:53;98652.56;;;3.42;100.00
17635;BME280;8936;49.010;12.120;2023-03-01T01:50:20;98640.78;;;3.45;100.00
17635;BME280;8936;49.010;12.120;2023-03-01T01:52:48;98641.38;;;3.40;100.00
17635;BME280;8936;49.010;12.120;2023-03-01T01:55:16;98636.91;;;3.41;100.00
17635;BME280;8936;49.010;12.120;2023-03-01T01:57:48;98638.53;;;3.42;100.00
17635;BME280;8936;49.010;12.120;2023-03-01T02:00:16;98629.38;;;3.38;100.00
17635;BME280;8936;49.010;12.120;2023-03-01T02:02:43;98632.03;;;3.31;100.00
17635;BME280;8936;49.010;12.120;2023-03-01T02:05:11;98630.72;;;3.07;100.00
17635;BME280;8936;49.010;12.120;2023-03-01T02:07:40;98629.09;;;3.06;100.00
17635;BME280;8936;49.010;12.120;2023-03-01T02:10:08;98624.44;;;2.67;100.00
17635;BME280;8936;49.010;12.120;2023-03-01T02:12:35;98619.91;;;2.55;100.00
17635;BME280;8936;49.010;12.120;2023-03-01T02:15:03;98624.03;;;2.64;100.00
17635;BME280;8936;49.010;12.120;2023-03-01T02:17:30;98617.00;;;2.43;100.00
17635;BME280;8936;49.010;12.120;2023-03-01T02:20:00;98619.06;;;2.48;100.00
17635;BME280;8936;49.010;12.120;2023-03-01T02:22:32;98616.25;;;2.49;100.00
17635;BME280;8936;49.010;12.120;2023-03-01T02:25:02;98622.41;;;2.63;100.00
17635;BME280;8936;49.010;12.120;2023-03-01T02:27:36;98606.78;;;2.61;100.00
17635;BME280;8936;49.010;12.120;2023-03-01T02:30:06;98605.13;;;2.60;100.00
17635;BME280;8936;49.010;12.120;2023-03-01T02:32:33;98601.28;;;2.56;100.00
17635;BME280;8936;49.010;12.120;2023-03-01T02:34:59;98607.19;;;2.31;100.00
17635;BME280;8936;49.010;12.120;2023-03-01T02:37:25;98603.03;;;2.43;100.00
17635;BME280;8936;49.010;12.120;2023-03-01T02:39:53;98595.56;;;2.18;100.00
17635;BME280;8936;49.010;12.120;2023-03-01T02:42:23;98593.13;;;2.17;100.00
17635;BME280;8936;49.010;12.120;2023-03-01T02:44:52;98600.06;;;1.97;100.00
17635;BME280;8936;49.010;12.120;2023-03-01T02:47:20;98602.81;;;1.82;100.00
17635;BME280;8936;49.010;12.120;2023-03-01T02:49:46;98598.19;;;1.63;100.00
17635;BME280;8936;49.010;12.120;2023-03-01T02:52:24;98605.81;;;1.58;100.00
17635;BME280;8936;49.010;12.120;2023-03-01T02:54:54;98606.47;;;1.60;100.00
17635;BME280;8936;49.010;12.120;2023-03-01T02:57:23;98600.41;;;1.87;100.00
17635;BME280;8936;49.010;12.120;2023-03-01T02:59:52;98595.75;;;1.89;100.00
17635;BME280;8936;49.010;12.120;2023-03-01T03:02:22;98602.13;;;2.01;100.00
17635;BME280;8936;49.010;12.120;2023-03-01T03:05:01;98591.84;;;2.06;100.00
17635;BME280;8936;49.010;12.120;2023-03-01T03:07:27;98587.38;;;2.35;100.00
17635;BME280;8936;49.010;12.120;2023-03-01T03:09:54;98575.66;;;2.44;100.00
17635;BME280;8936;49.010;12.120;2023-03-01T03:12:20;98589.53;;;2.59;100.00
17635;BME280;8936;49.010;12.120;2023-03-01T03:14:46;98586.56;;;2.75;100.00
17635;BME280;8936;49.010;12.120;2023-03-01T03:17:13;98591.06;;;2.88;100.00
17635;BME280;8936;49.010;12.120;2023-03-01T03:19:41;98581.56;;;2.93;100.00
17635;BME280;8936;49.010;12.120;2023-03-01T03:22:10;98578.13;;;2.99;100.00
17635;BME280;8936;49.010;12.120;2023-03-01T03:24:36;98572.44;;;3.02;100.00
17635;BME280;8936;49.010;12.120;2023-03-01T03:27:03;98574.25;;;2.95;100.00
17635;BME280;8936;49.010;12.120;2023-03-01T03:29:29;98575.88;;;2.96;100.00
17635;BME280;8936;49.010;12.120;2023-03-01T03:31:56;98566.50;;;2.87;100.00
17635;BME280;8936;49.010;12.120;2023-03-01T03:34:22;98564.31;;;2.91;100.00
17635;BME280;8936;49.010;12.120;2023-03-01T03:36:53;98562.44;;;2.91;100.00
17635;BME280;8936;49.010;12.120;2023-03-01T03:39:21;98568.38;;;2.93;100.00
17635;BME280;8936;49.010;12.120;2023-03-01T03:41:48;98563.69;;;2.95;100.00
17635;BME280;8936;49.010;12.120;2023-03-01T03:44:14;98564.47;;;2.89;100.00
17635;BME280;8936;49.010;12.120;2023-03-01T03:46:40;98563.66;;;2.89;100.00
17635;BME280;8936;49.010;12.120;2023-03-01T03:49:07;98563.09;;;2.93;100.00
17635;BME280;8936;49.010;12.120;2023-03-01T03:51:33;98570.59;;;2.96;100.00
17635;BME280;8936;49.010;12.120;2023-03-01T03:54:01;98565.75;;;3.00;100.00
17635;BME280;8936;49.010;12.120;2023-03-01T03:56:27;98566.75;;;2.99;100.00
17635;BME280;8936;49.010;12.120;2023-03-01T03:58:53;98558.03;;;2.98;100.00
17635;BME280;8936;49.010;12.120;2023-03-01T04:01:20;98559.16;;;2.76;100.00
17635;BME280;8936;49.010;12.120;2023-03-01T04:03:46;98565.16;;;2.50;100.00
17635;BME280;8936;49.010;12.120;2023-03-01T04:06:12;98555.50;;;2.30;100.00
17635;BME280;8936;49.010;12.120;2023-03-01T04:08:39;98549.03;;;1.98;100.00
17635;BME280;8936;49.010;12.120;2023-03-01T04:11:08;98561.47;;;1.83;100.00
17635;BME280;8936;49.010;12.120;2023-03-01T04:13:55;98552.69;;;1.48;100.00
17635;BME280;8936;49.010;12.120;2023-03-01T04:16:22;98553.94;;;1.31;100.00
17635;BME280;8936;49.010;12.120;2023-03-01T04:18:49;98558.25;;;1.59;100.00
17635;BME280;8936;49.010;12.120;2023-03-01T04:21:15;98566.03;;;1.25;100.00
17635;BME280;8936;49.010;12.120;2023-03-01T04:23:42;98554.91;;;1.23;100.00
17635;BME280;8936;49.010;12.120;2023-03-01T04:26:09;98551.00;;;0.98;100.00
17635;BME280;8936;49.010;12.120;2023-03-01T04:28:36;98555.31;;;1.05;100.00
17635;BME280;8936;49.010;12.120;2023-03-01T04:31:04;98559.25;;;0.95;100.00
17635;BME280;8936;49.010;12.120;2023-03-01T04:33:38;98560.16;;;0.87;100.00
17635;BME280;8936;49.010;12.120;2023-03-01T04:36:04;98562.09;;;0.79;100.00
17635;BME280;8936;49.010;12.120;2023-03-01T04:38:33;98555.69;;;1.02;100.00
17635;BME280;8936;49.010;12.120;2023-03-01T04:41:00;98559.47;;;0.79;100.00
17635;BME280;8936;49.010;12.120;2023-03-01T04:43:29;98566.50;;;0.57;100.00
17635;BME280;8936;49.010;12.120;2023-03-01T04:45:59;98564.78;;;0.49;100.00
17635;BME280;8936;49.010;12.120;2023-03-01T04:48:27;98556.75;;;0.72;100.00
17635;BME280;8936;49.010;12.120;2023-03-01T04:50:54;98564.25;;;0.39;100.00
17635;BME280;8936;49.010;12.120;2023-03-01T04:53:20;98560.28;;;0.79;100.00
17635;BME280;8936;49.010;12.120;2023-03-01T04:55:46;98561.81;;;0.52;100.00
17635;BME280;8936;49.010;12.120;2023-03-01T04:58:13;98566.88;;;0.90;100.00
17635;BME280;8936;49.010;12.120;2023-03-01T05:00:40;98551.94;;;0.76;100.00
17635;BME280;8936;49.010;12.120;2023-03-01T05:03:07;98561.06;;;0.59;100.00
17635;BME280;8936;49.010;12.120;2023-03-01T05:05:34;98565.66;;;0.71;100.00
17635;BME280;8936;49.010;12.120;2023-03-01T05:08:02;98563.88;;;0.57;100.00
17635;BME280;8936;49.010;12.120;2023-03-01T05:10:30;98565.88;;;0.55;100.00
17635;BME280;8936;49.010;12.120;2023-03-01T05:12:57;98563.88;;;0.57;100.00
17635;BME280;8936;49.010;12.120;2023-03-01T05:15:23;98562.72;;;0.30;100.00
17635;BME280;8936;49.010;12.120;2023-03-01T05:17:52;98559.16;;;0.38;100.00
17635;BME280;8936;49.010;12.120;2023-03-01T05:20:19;98556.66;;;0.30;100.00
17635;BME280;8936;49.010;12.120;2023-03-01T05:22:48;98562.41;;;0.54;100.00
17635;BME280;8936;49.010;12.120;2023-03-01T05:25:14;98559.28;;;0.30;100.00
17635;BME280;8936;49.010;12.120;2023-03-01T05:27:40;98552.75;;;0.26;100.00
17635;BME280;8936;49.010;12.120;2023-03-01T05:30:07;98566.59;;;0.20;100.00
17635;BME280;8936;49.010;12.120;2023-03-01T05:32:42;98554.75;;;0.24;100.00
17635;BME280;8936;49.010;12.120;2023-03-01T05:35:11;98549.56;;;0.01;100.00
17635;BME280;8936;49.010;12.120;2023-03-01T05:37:39;98555.91;;;0.07;100.00
17635;BME280;8936;49.010;12.120;2023-03-01T05:40:07;98547.41;;;0.05;100.00
17635;BME280;8936;49.010;12.120;2023-03-01T05:42:40;98541.34;;;0.33;100.00
17635;BME280;8936;49.010;12.120;2023-03-01T05:45:07;98547.97;;;0.15;100.00
17635;BME280;8936;49.010;12.120;2023-03-01T05:47:35;98546.69;;;0.11;100.00
17635;BME280;8936;49.010;12.120;2023-03-01T05:50:01;98543.53;;;0.15;100.00
17635;BME280;8936;49.010;12.120;2023-03-01T05:52:29;98544.78;;;-0.10;100.00
17635;BME280;8936;49.010;12.120;2023-03-01T05:54:55;98543.50;;;0.00;100.00
17635;BME280;8936;49.010;12.120;2023-03-01T05:57:22;98540.78;;;-0.06;100.00
17635;BME280;8936;49.010;12.120;2023-03-01T05:59:48;98544.13;;;-0.12;100.00
17635;BME280;8936;49.010;12.120;2023-03-01T06:02:14;98546.78;;;0.03;100.00
17635;BME280;8936;49.010;12.120;2023-03-01T06:04:41;98548.03;;;-0.08;100.00
17635;BME280;8936;49.010;12.120;2023-03-01T06:07:07;98550.22;;;0.18;100.00
17635;BME280;8936;49.010;12.120;2023-03-01T06:09:35;98545.94;;;0.46;100.00
17635;BME280;8936;49.010;12.120;2023-03-01T06:12:04;98537.41;;;0.59;100.00
17635;BME280;8936;49.010;12.120;2023-03-01T06:14:31;98540.88;;;0.30;100.00
17635;BME280;8936;49.010;12.120;2023-03-01T06:16:57;98548.56;;;0.31;100.00
17635;BME280;8936;49.010;12.120;2023-03-01T06:19:23;98546.88;;;0.24;100.00
17635;BME280;8936;49.010;12.120;2023-03-01T06:21:50;98550.75;;;-0.16;100.00
17635;BME280;8936;49.010;12.120;2023-03-01T06:24:16;98534.63;;;-0.13;100.00
17635;BME280;8936;49.010;12.120;2023-03-01T06:26:44;98550.13;;;-0.04;100.00
17635;BME280;8936;49.010;12.120;2023-03-01T06:29:10;98543.69;;;0.28;100.00
17635;BME280;8936;49.010;12.120;2023-03-01T06:31:36;98547.47;;;0.40;100.00
17635;BME280;8936;49.010;12.120;2023-03-01T06:34:03;98539.69;;;0.32;100.00
17635;BME280;8936;49.010;12.120;2023-03-01T06:36:29;98543.06;;;0.26;100.00
17635;BME280;8936;49.010;12.120;2023-03-01T06:38:57;98540.59;;;0.10;100.00
17635;BME280;8936;49.010;12.120;2023-03-01T06:41:24;98542.59;;;-0.07;100.00
17635;BME280;8936;49.010;12.120;2023-03-01T06:43:52;98539.25;;;-0.01;100.00
17635;BME280;8936;49.010;12.120;2023-03-01T06:46:19;98540.53;;;0.18;100.00
17635;BME280;8936;49.010;12.120;2023-03-01T06:48:46;98545.03;;;0.10;100.00
17635;BME280;8936;49.010;12.120;2023-03-01T06:51:13;98527.13;;;-0.02;100.00
17635;BME280;8936;49.010;12.120;2023-03-01T06:53:39;98547.22;;;0.21;100.00
17635;BME280;8936;49.010;12.120;2023-03-01T06:56:06;98546.13;;;0.30;100.00
17635;BME280;8936;49.010;12.120;2023-03-01T06:58:32;98552.00;;;0.32;100.00
17635;BME280;8936;49.010;12.120;2023-03-01T07:01:00;98547.22;;;0.35;100.00
17635;BME280;8936;49.010;12.120;2023-03-01T07:03:26;98544.59;;;0.35;100.00
17635;BME280;8936;49.010;12.120;2023-03-01T07:05:52;98554.63;;;0.61;100.00
17635;BME280;8936;49.010;12.120;2023-03-01T07:08:19;98551.28;;;0.88;100.00
17635;BME280;8936;49.010;12.120;2023-03-01T07:10:45;98556.91;;;0.85;100.00
17635;BME280;8936;49.010;12.120;2023-03-01T07:13:11;98547.47;;;1.12;100.00
17635;BME280;8936;49.010;12.120;2023-03-01T07:15:39;98546.19;;;1.01;100.00
17635;BME280;8936;49.010;12.120;2023-03-01T07:18:07;98530.41;;;1.23;100.00
17635;BME280;8936;49.010;12.120;2023-03-01T07:20:34;98540.03;;;0.94;100.00
17635;BME280;8936;49.010;12.120;2023-03-01T07:23:00;98547.00;;;1.02;100.00
17635;BME280;8936;49.010;12.120;2023-03-01T07:25:27;98541.66;;;0.95;100.00
17635;BME280;8936;49.010;12.120;2023-03-01T07:27:53;98536.34;;;0.89;100.00
17635;BME280;8936;49.010;12.120;2023-03-01T07:30:20;98529.75;;;0.99;100.00
17635;BME280;8936;49.010;12.120;2023-03-01T07:32:46;98535.59;;;0.95;100.00
17635;BME280;8936;49.010;12.120;2023-03-01T07:35:14;98531.47;;;1.28;100.00
17635;BME280;8936;49.010;12.120;2023-03-01T07:37:40;98534.16;;;1.14;100.00
17635;BME280;8936;49.010;12.120;2023-03-01T07:40:07;98542.28;;;1.19;100.00
17635;BME280;8936;49.010;12.120;2023-03-01T07:42:34;98540.91;;;1.01;100.00
17635;BME280;8936;49.010;12.120;2023-03-01T07:45:00;98542.66;;;0.94;100.00
17635;BME280;8936;49.010;12.120;2023-03-01T07:47:27;98538.97;;;1.10;100.00
17635;BME280;8936;49.010;12.120;2023-03-01T07:49:53;98539.41;;;1.14;100.00
17635;BME280;8936;49.010;12.120;2023-03-01T07:52:21;98524.91;;;1.18;100.00
17635;BME280;8936;49.010;12.120;2023-03-01T07:54:47;98526.47;;;1.61;100.00
17635;BME280;8936;49.010;12.120;2023-03-01T07:57:13;98524.59;;;1.55;100.00
17635;BME280;8936;49.010;12.120;2023-03-01T07:59:40;98523.13;;;1.74;100.00
17635;BME280;8936;49.010;12.120;2023-03-01T08:02:07;98521.94;;;1.76;100.00
17635;BME280;8936;49.010;12.120;2023-03-01T08:04:34;98517.81;;;1.95;100.00
17635;BME280;8936;49.010;12.120;2023-03-01T08:07:00;98524.69;;;1.96;100.00
17635;BME280;8936;49.010;12.120;2023-03-01T08:09:28;98519.06;;;2.05;100.00
17635;BME280;8936;49.010;12.120;2023-03-01T08:11:56;98516.34;;;1.92;100.00
17635;BME280;8936;49.010;12.120;2023-03-01T08:14:24;98522.66;;;1.91;100.00
17635;BME280;8936;49.010;12.120;2023-03-01T08:16:50;98521.22;;;1.95;100.00
17635;BME280;8936;49.010;12.120;2023-03-01T08:19:17;98512.63;;;2.14;100.00
17635;BME280;8936;49.010;12.120;2023-03-01T08:21:43;98512.28;;;2.24;100.00
17635;BME280;8936;49.010;12.120;2023-03-01T08:24:09;98510.28;;;2.33;100.00
17635;BME280;8936;49.010;12.120;2023-03-01T08:26:37;98510.28;;;2.33;100.00
17635;BME280;8936;49.010;12.120;2023-03-01T08:29:04;98508.22;;;2.22;100.00
17635;BME280;8936;49.010;12.120;2023-03-01T08:31:31;98513.53;;;2.28;100.00
17635;BME280;8936;49.010;12.120;2023-03-01T08:34:00;98504.19;;;2.26;100.00
17635;BME280;8936;49.010;12.120;2023-03-01T08:36:27;98506.03;;;2.25;100.00
17635;BME280;8936;49.010;12.120;2023-03-01T08:38:54;98498.72;;;2.27;100.00
17635;BME280;8936;49.010;12.120;2023-03-01T08:41:21;98503.63;;;2.37;100.00
17635;BME280;8936;49.010;12.120;2023-03-01T08:43:48;98503.06;;;2.41;100.00
17635;BME280;8936;49.010;12.120;2023-03-01T08:46:15;98505.47;;;2.43;100.00
17635;BME280;8936;49.010;12.120;2023-03-01T08:48:41;98488.03;;;2.42;100.00
17635;BME280;8936;49.010;12.120;2023-03-01T08:51:08;98491.91;;;2.46;100.00
17635;BME280;8936;49.010;12.120;2023-03-01T08:53:35;98485.81;;;2.45;100.00
17635;BME280;8936;49.010;12.120;2023-03-01T08:56:01;98488.44;;;2.45;100.00
17635;BME280;8936;49.010;12.120;2023-03-01T08:58:28;98485.78;;;2.39;100.00
17635;BME280;8936;49.010;12.120;2023-03-01T09:00:56;98486.41;;;2.34;100.00
17635;BME280;8936;49.010;12.120;2023-03-01T09:03:22;98483.22;;;2.52;100.00
17635;BME280;8936;49.010;12.120;2023-03-01T09:05:49;98484.06;;;2.59;100.00
17635;BME280;8936;49.010;12.120;2023-03-01T09:08:16;98470.91;;;2.65;100.00
17635;BME280;8936;49.010;12.120;2023-03-01T09:10:42;98462.97;;;2.65;100.00
17635;BME280;8936;49.010;12.120;2023-03-01T09:13:08;98473.09;;;2.55;100.00
17635;BME280;8936;49.010;12.120;2023-03-01T09:15:36;98455.47;;;2.62;100.00
17635;BME280;8936;49.010;12.120;2023-03-01T09:18:04;98453.66;;;2.63;100.00
17635;BME280;8936;49.010;12.120;2023-03-01T09:20:30;98462.75;;;2.67;100.00
17635;BME280;8936;49.010;12.120;2023-03-01T09:22:57;98453.66;;;2.76;100.00
17635;BME280;8936;49.010;12.120;2023-03-01T09:25:24;98450.44;;;2.81;100.00
17635;BME280;8936;49.010;12.120;2023-03-01T09:27:50;98446.41;;;2.85;100.00
17635;BME280;8936;49.010;12.120;2023-03-01T09:30:16;98442.53;;;2.87;100.00
17635;BME280;8936;49.010;12.120;2023-03-01T09:32:43;98442.34;;;2.95;100.00
17635;BME280;8936;49.010;12.120;2023-03-01T09:35:11;98440.91;;;2.86;100.00
17635;BME280;8936;49.010;12.120;2023-03-01T09:37:37;98434.22;;;2.90;100.00
17635;BME280;8936;49.010;12.120;2023-03-01T09:40:05;98431.78;;;2.95;100.00
17635;BME280;8936;49.010;12.120;2023-03-01T09:42:32;98431.19;;;3.00;100.00
17635;BME280;8936;49.010;12.120;2023-03-01T09:45:00;98439.50;;;3.03;100.00
17635;BME280;8936;49.010;12.120;2023-03-01T09:47:29;98433.22;;;3.17;100.00
17635;BME280;8936;49.010;12.120;2023-03-01T09:49:58;98438.91;;;3.14;100.00
17635;BME280;8936;49.010;12.120;2023-03-01T09:52:28;98442.13;;;3.16;100.00
17635;BME280;8936;49.010;12.120;2023-03-01T09:54:55;98441.13;;;3.11;100.00
17635;BME280;8936;49.010;12.120;2023-03-01T09:57:26;98446.56;;;2.83;100.00
17635;BME280;8936;49.010;12.120;2023-03-01T09:59:57;98445.56;;;2.78;100.00
17635;BME280;8936;49.010;12.120;2023-03-01T10:02:30;98431.34;;;2.85;100.00
17635;BME280;8936;49.010;12.120;2023-03-01T10:05:05;98436.25;;;3.21;100.00
17635;BME280;8936;49.010;12.120;2023-03-01T10:07:38;98430.78;;;3.36;100.00
17635;BME280;8936;49.010;12.120;2023-03-01T10:10:10;98422.84;;;3.36;100.00
17635;BME280;8936;49.010;12.120;2023-03-01T10:12:42;98413.94;;;3.37;100.00
17635;BME280;8936;49.010;12.120;2023-03-01T10:15:11;98417.72;;;3.67;100.00
17635;BME280;8936;49.010;12.120;2023-03-01T10:17:39;98411.69;;;3.34;100.00
17635;BME280;8936;49.010;12.120;2023-03-01T10:20:14;98400.66;;;3.63;100.00
17635;BME280;8936;49.010;12.120;2023-03-01T10:22:43;98403.88;;;3.85;98.85
17635;BME280;8936;49.010;12.120;2023-03-01T10:25:15;98400.25;;;3.66;99.63
17635;BME280;8936;49.010;12.120;2023-03-01T10:27:46;98393.09;;;3.86;98.13
17635;BME280;8936;49.010;12.120;2023-03-01T10:30:16;98394.38;;;3.64;99.46
17635;BME280;8936;49.010;12.120;2023-03-01T10:32:45;98382.13;;;3.89;98.98
17635;BME280;8936;49.010;12.120;2023-03-01T10:35:18;98373.97;;;3.91;97.66
17635;BME280;8936;49.010;12.120;2023-03-01T10:38:00;98375.88;;;4.15;96.31
17635;BME280;8936;49.010;12.120;2023-03-01T10:40:28;98375.44;;;4.24;95.04
17635;BME280;8936;49.010;12.120;2023-03-01T10:42:54;98379.72;;;4.25;94.31
17635;BME280;8936;49.010;12.120;2023-03-01T10:45:27;98355.66;;;4.33;95.04
17635;BME280;8936;49.010;12.120;2023-03-01T10:48:03;98348.47;;;4.47;94.50
17635;BME280;8936;49.010;12.120;2023-03-01T10:50:29;98349.25;;;4.54;93.88
17635;BME280;8936;49.010;12.120;2023-03-01T10:52:57;98347.59;;;4.60;93.53
17635;BME280;8936;49.010;12.120;2023-03-01T10:55:26;98343.44;;;4.70;93.47
17635;BME280;8936;49.010;12.120;2023-03-01T10:58:05;98342.84;;;4.68;93.42
17635;BME280;8936;49.010;12.120;2023-03-01T11:00:32;98339.81;;;4.65;92.48
17635;BME280;8936;49.010;12.120;2023-03-01T11:03:03;98335.66;;;4.75;90.51
17635;BME280;8936;49.010;12.120;2023-03-01T11:05:35;98332.97;;;4.82;90.16
17635;BME280;8936;49.010;12.120;2023-03-01T11:08:02;98324.38;;;4.86;87.23
17635;BME280;8936;49.010;12.120;2023-03-01T11:10:31;98319.25;;;4.92;86.47
17635;BME280;8936;49.010;12.120;2023-03-01T11:13:08;98318.94;;;4.81;89.22
17635;BME280;8936;49.010;12.120;2023-03-01T11:15:34;98312.44;;;5.20;85.36
17635;BME280;8936;49.010;12.120;2023-03-01T11:18:01;98313.91;;;5.41;83.67
17635;BME280;8936;49.010;12.120;2023-03-01T11:20:29;98316.00;;;5.32;83.92
17635;BME280;8936;49.010;12.120;2023-03-01T11:22:58;98305.94;;;5.23;85.51
17635;BME280;8936;49.010;12.120;2023-03-01T11:25:26;98299.66;;;5.35;84.14
17635;BME280;8936;49.010;12.120;2023-03-01T11:27:55;98299.97;;;5.27;86.12
17635;BME280;8936;49.010;12.120;2023-03-01T11:30:23;98283.56;;;5.37;85.34
17635;BME280;8936;49.010;12.120;2023-03-01T11:32:52;98284.59;;;5.54;85.24
17635;BME280;8936;49.010;12.120;2023-03-01T11:35:23;98287.03;;;5.56;84.73
17635;BME280;8936;49.010;12.120;2023-03-01T11:37:55;98279.22;;;5.42;88.55
17635;BME280;8936;49.010;12.120;2023-03-01T11:40:26;98269.25;;;5.44;87.27
17635;BME280;8936;49.010;12.120;2023-03-01T11:42:59;98264.97;;;5.43;87.47
17635;BME280;8936;49.010;12.120;2023-03-01T11:45:28;98262.88;;;5.64;87.32
17635;BME280;8936;49.010;12.120;2023-03-01T11:48:06;98271.69;;;5.76;85.65
17635;BME280;8936;49.010;12.120;2023-03-01T11:50:39;98263.03;;;5.69;88.44
17635;BME280;8936;49.010;12.120;2023-03-01T11:53:21;98253.81;;;5.89;87.45
17635;BME280;8936;49.010;12.120;2023-03-01T11:55:55;98251.53;;;5.93;86.39
17635;BME280;8936;49.010;12.120;2023-03-01T11:58:34;98243.41;;;6.06;86.21
17635;BME280;8936;49.010;12.120;2023-03-01T12:01:08;98245.22;;;5.94;87.56
17635;BME280;8936;49.010;12.120;2023-03-01T12:03:42;98232.91;;;6.11;85.86
17635;BME280;8936;49.010;12.120;2023-03-01T12:06:22;98240.16;;;6.04;86.01
17635;BME280;8936;49.010;12.120;2023-03-01T12:08:56;98224.47;;;6.03;86.98
17635;BME280;8936;49.010;12.120;2023-03-01T12:11:30;98227.78;;;6.28;86.26
17635;BME280;8936;49.010;12.120;2023-03-01T12:17:00;98220.84;;;6.15;87.80
17635;BME280;8936;49.010;12.120;2023-03-01T12:19:45;98220.84;;;6.15;87.31
17635;BME280;8936;49.010;12.120;2023-03-01T12:22:21;98215.69;;;6.43;87.15
17635;BME280;8936;49.010;12.120;2023-03-01T12:25:00;98216.22;;;6.22;88.26
17635;BME280;8936;49.010;12.120;2023-03-01T12:27:36;98208.84;;;6.24;87.31
17635;BME280;8936;49.010;12.120;2023-03-01T12:30:09;98219.94;;;6.44;87.41
17635;BME280;8936;49.010;12.120;2023-03-01T12:32:46;98203.53;;;6.13;91.58
17635;BME280;8936;49.010;12.120;2023-03-01T12:35:31;98195.84;;;6.46;88.88
17635;BME280;8936;49.010;12.120;2023-03-01T12:38:06;98194.69;;;6.53;89.13
17635;BME280;8936;49.010;12.120;2023-03-01T12:40:42;98185.69;;;6.66;90.09
17635;BME280;8936;49.010;12.120;2023-03-01T12:43:17;98176.59;;;6.74;88.87
17635;BME280;8936;49.010;12.120;2023-03-01T12:46:02;98191.38;;;6.46;88.72
17635;BME280;8936;49.010;12.120;2023-03-01T12:48:38;98197.84;;;6.74;88.59
17635;BME280;8936;49.010;12.120;2023-03-01T12:51:07;98191.22;;;6.41;89.64
17635;BME280;8936;49.010;12.120;2023-03-01T12:53:36;98185.44;;;6.21;94.09
17635;BME280;8936;49.010;12.120;2023-03-01T12:56:05;98186.28;;;6.57;92.64
17635;BME280;8936;49.010;12.120;2023-03-01T12:58:35;98185.25;;;6.69;91.16
17635;BME280;8936;49.010;12.120;2023-03-01T13:01:08;98175.91;;;6.43;91.42
17635;BME280;8936;49.010;12.120;2023-03-01T13:03:46;98175.00;;;6.49;94.07
17635;BME280;8936;49.010;12.120;2023-03-01T13:06:18;98168.28;;;6.47;94.22
17635;BME280;8936;49.010;12.120;2023-03-01T13:08:47;98171.97;;;6.58;94.42
17635;BME280;8936;49.010;12.120;2023-03-01T13:11:16;98158.25;;;6.72;93.53
17635;BME280;8936;49.010;12.120;2023-03-01T13:13:43;98167.56;;;6.75;92.47